sensor_id;sensor_type;location;lat;lon;timestamp;pressure;altitude;pressure_sealevel;temperature;humidity
15674;BME280;7937;48.090;16.212;2022-08-19T00:02:57;96989.75;;;19.17;67.46
15674;BME280;7937;48.090;16.212;2022-08-19T00:05:59;96985.41;;;19.16;67.70
15674;BME280;7937;48.090;16.212;2022-08-19T00:09:04;96978.88;;;19.19;67.17
15674;BME280;7937;48.090;16.212;2022-08-19T00:12:06;96989.53;;;19.12;67.64
15674;BME280;7937;48.090;16.212;2022-08-19T00:15:11;96988.50;;;19.13;67.55
15674;BME280;7937;48.090;16.212;2022-08-19T00:18:14;96989.72;;;19.11;67.57
15674;BME280;7937;48.090;16.212;2022-08-19T00:21:16;96981.44;;;19.06;67.76
15674;BME280;7937;48.090;16.212;2022-08-19T00:24:18;96978.97;;;19.04;68.13
15674;BME280;7937;48.090;16.212;2022-08-19T00:27:21;96977.31;;;19.03;67.79
15674;BME280;7937;48.090;16.212;2022-08-19T00:30:27;96968.59;;;18.95;68.19
15674;BME280;7937;48.090;16.212;2022-08-19T00:33:32;96973.34;;;18.99;68.09
15674;BME280;7937;48.090;16.212;2022-08-19T00:36:35;96968.19;;;18.98;68.22
15674;BME280;7937;48.090;16.212;2022-08-19T00:39:37;96968.00;;;18.99;67.89
15674;BME280;7937;48.090;16.212;2022-08-19T00:42:40;96971.09;;;18.96;68.30
15674;BME280;7937;48.090;16.212;2022-08-19T00:45:42;96977.66;;;18.94;67.95
15674;BME280;7937;48.090;16.212;2022-08-19T00:48:45;96964.19;;;18.87;68.18
15674;BME280;7937;48.090;16.212;2022-08-19T00:51:50;96971.28;;;18.73;68.90
15674;BME280;7937;48.090;16.212;2022-08-19T00:54:56;96965.81;;;18.82;68.58
15674;BME280;7937;48.090;16.212;2022-08-19T00:58:08;96950.53;;;18.75;69.06
15674;BME280;7937;48.090;16.212;2022-08-19T01:05:16;96972.69;;;18.69;68.90
15674;BME280;7937;48.090;16.212;2022-08-19T01:08:20;96976.13;;;18.63;68.97
15674;BME280;7937;48.090;16.212;2022-08-19T01:11:22;96968.47;;;18.60;69.04
15674;BME280;7937;48.090;16.212;2022-08-19T01:14:25;96985.06;;;18.56;68.92
15674;BME280;7937;48.090;16.212;2022-08-19T01:17:27;96987.56;;;18.57;68.69
15674;BME280;7937;48.090;16.212;2022-08-19T01:20:30;96991.63;;;18.53;69.44
15674;BME280;7937;48.090;16.212;2022-08-19T01:23:32;96992.81;;;18.51;69.34
15674;BME280;7937;48.090;16.212;2022-08-19T01:26:46;96988.06;;;18.46;69.39
15674;BME280;7937;48.090;16.212;2022-08-19T01:29:49;96985.63;;;18.51;69.16
15674;BME280;7937;48.090;16.212;2022-08-19T01:32:52;96989.69;;;18.47;69.46
15674;BME280;7937;48.090;16.212;2022-08-19T01:36:06;96985.56;;;18.44;69.97
15674;BME280;7937;48.090;16.212;2022-08-19T01:39:12;96996.81;;;18.40;70.22
15674;BME280;7937;48.090;16.212;2022-08-19T01:42:14;97000.13;;;18.42;69.60
15674;BME280;7937;48.090;16.212;2022-08-19T01:45:18;96994.97;;;18.40;69.35
15674;BME280;7937;48.090;16.212;2022-08-19T01:48:20;96986.25;;;18.32;69.85
15674;BME280;7937;48.090;16.212;2022-08-19T01:51:23;96982.94;;;18.30;69.69
15674;BME280;7937;48.090;16.212;2022-08-19T01:54:26;96988.84;;;18.25;69.65
15674;BME280;7937;48.090;16.212;2022-08-19T01:57:28;97012.25;;;18.23;69.82
15674;BME280;7937;48.090;16.212;2022-08-19T02:00:32;97014.72;;;18.25;70.28
15674;BME280;7937;48.090;16.212;2022-08-19T02:03:34;97014.28;;;18.21;70.18
15674;BME280;7937;48.090;16.212;2022-08-19T02:06:36;97022.47;;;18.20;70.16
15674;BME280;7937;48.090;16.212;2022-08-19T02:09:39;97021.25;;;18.22;69.79
15674;BME280;7937;48.090;16.212;2022-08-19T02:12:41;97014.00;;;18.16;70.12
15674;BME280;7937;48.090;16.212;2022-08-19T02:15:44;97003.50;;;18.15;70.08
15674;BME280;7937;48.090;16.212;2022-08-19T02:18:46;97011.25;;;18.10;70.83
15674;BME280;7937;48.090;16.212;2022-08-19T02:21:52;97018.78;;;18.21;70.39
15674;BME280;7937;48.090;16.212;2022-08-19T02:24:54;97033.31;;;18.18;70.46
15674;BME280;7937;48.090;16.212;2022-08-19T02:27:57;97023.88;;;18.16;70.64
15674;BME280;7937;48.090;16.212;2022-08-19T02:30:59;97020.56;;;18.14;70.52
15674;BME280;7937;48.090;16.212;2022-08-19T02:34:02;97005.06;;;18.09;70.61
15674;BME280;7937;48.090;16.212;2022-08-19T02:37:05;97006.28;;;18.06;70.51
15674;BME280;7937;48.090;16.212;2022-08-19T02:40:07;96992.38;;;18.11;70.70
15674;BME280;7937;48.090;16.212;2022-08-19T02:43:13;96993.25;;;18.18;70.13
15674;BME280;7937;48.090;16.212;2022-08-19T02:46:19;96999.25;;;18.20;69.91
15674;BME280;7937;48.090;16.212;2022-08-19T02:49:22;96998.25;;;18.21;69.91
15674;BME280;7937;48.090;16.212;2022-08-19T02:52:24;96998.53;;;18.26;69.49
15674;BME280;7937;48.090;16.212;2022-08-19T02:55:27;96985.78;;;18.28;69.55
15674;BME280;7937;48.090;16.212;2022-08-19T02:58:29;96987.91;;;18.33;69.92
15674;BME280;7937;48.090;16.212;2022-08-19T03:01:56;96986.31;;;18.38;69.90
15674;BME280;7937;48.090;16.212;2022-08-19T03:04:58;96983.06;;;18.43;69.92
15674;BME280;7937;48.090;16.212;2022-08-19T03:08:00;96977.56;;;18.44;69.69
15674;BME280;7937;48.090;16.212;2022-08-19T03:11:04;96980.47;;;18.50;69.55
15674;BME280;7937;48.090;16.212;2022-08-19T03:14:07;96977.16;;;18.48;69.65
15674;BME280;7937;48.090;16.212;2022-08-19T03:17:10;96988.66;;;18.48;69.60
15674;BME280;7937;48.090;16.212;2022-08-19T03:20:12;96978.44;;;18.52;69.71
15674;BME280;7937;48.090;16.212;2022-08-19T03:23:16;96996.91;;;18.47;69.76
15674;BME280;7937;48.090;16.212;2022-08-19T03:26:18;97008.03;;;18.50;69.67
15674;BME280;7937;48.090;16.212;2022-08-19T03:29:20;97004.09;;;18.46;69.91
15674;BME280;7937;48.090;16.212;2022-08-19T03:32:32;97011.38;;;18.37;69.81
15674;BME280;7937;48.090;16.212;2022-08-19T03:35:35;97012.66;;;18.41;70.08
15674;BME280;7937;48.090;16.212;2022-08-19T03:38:43;97027.78;;;18.34;70.49
15674;BME280;7937;48.090;16.212;2022-08-19T03:41:47;97032.78;;;18.23;70.91
15674;BME280;7937;48.090;16.212;2022-08-19T03:45:11;97039.31;;;18.20;71.34
15674;BME280;7937;48.090;16.212;2022-08-19T03:48:14;97048.06;;;18.29;71.13
15674;BME280;7937;48.090;16.212;2022-08-19T03:51:26;97044.56;;;18.28;71.09
15674;BME280;7937;48.090;16.212;2022-08-19T03:54:31;97052.13;;;18.25;71.15
15674;BME280;7937;48.090;16.212;2022-08-19T03:57:33;97053.56;;;18.27;71.23
15674;BME280;7937;48.090;16.212;2022-08-19T04:00:36;97054.22;;;18.29;71.21
15674;BME280;7937;48.090;16.212;2022-08-19T04:03:39;97060.22;;;18.31;70.90
15674;BME280;7937;48.090;16.212;2022-08-19T04:06:43;97069.88;;;18.32;71.11
15674;BME280;7937;48.090;16.212;2022-08-19T04:09:45;97062.81;;;18.25;71.07
15674;BME280;7937;48.090;16.212;2022-08-19T04:12:47;97064.84;;;18.23;71.19
15674;BME280;7937;48.090;16.212;2022-08-19T04:15:49;97079.66;;;18.25;71.33
15674;BME280;7937;48.090;16.212;2022-08-19T04:18:51;97071.66;;;18.25;71.50
15674;BME280;7937;48.090;16.212;2022-08-19T04:21:54;97078.72;;;18.33;71.41
15674;BME280;7937;48.090;16.212;2022-08-19T04:24:56;97073.66;;;18.38;71.32
15674;BME280;7937;48.090;16.212;2022-08-19T04:27:58;97076.84;;;18.48;71.33
15674;BME280;7937;48.090;16.212;2022-08-19T04:31:00;97081.19;;;18.64;71.00
15674;BME280;7937;48.090;16.212;2022-08-19T04:34:07;97088.72;;;18.75;70.57
15674;BME280;7937;48.090;16.212;2022-08-19T04:37:09;97084.81;;;18.77;70.75
15674;BME280;7937;48.090;16.212;2022-08-19T04:40:14;97091.47;;;18.82;70.85
15674;BME280;7937;48.090;16.212;2022-08-19T04:43:37;97089.97;;;18.94;70.32
15674;BME280;7937;48.090;16.212;2022-08-19T04:46:40;97094.63;;;19.06;70.18
15674;BME280;7937;48.090;16.212;2022-08-19T04:49:52;97101.03;;;19.12;70.05
15674;BME280;7937;48.090;16.212;2022-08-19T04:52:54;97109.25;;;19.10;70.27
15674;BME280;7937;48.090;16.212;2022-08-19T04:55:59;97107.47;;;19.17;70.15
15674;BME280;7937;48.090;16.212;2022-08-19T04:59:05;97107.72;;;19.23;69.78
15674;BME280;7937;48.090;16.212;2022-08-19T05:02:08;97124.63;;;19.23;70.13
15674;BME280;7937;48.090;16.212;2022-08-19T05:05:11;97129.38;;;19.28;70.14
15674;BME280;7937;48.090;16.212;2022-08-19T05:08:16;97136.38;;;19.29;69.82
15674;BME280;7937;48.090;16.212;2022-08-19T05:11:34;97140.72;;;19.30;70.03
15674;BME280;7937;48.090;16.212;2022-08-19T05:14:41;97139.06;;;19.29;70.17
15674;BME280;7937;48.090;16.212;2022-08-19T05:17:43;97143.03;;;19.33;70.63
15674;BME280;7937;48.090;16.212;2022-08-19T05:21:07;97145.06;;;19.31;71.27
15674;BME280;7937;48.090;16.212;2022-08-19T05:24:28;97149.84;;;19.35;71.31
15674;BME280;7937;48.090;16.212;2022-08-19T05:27:32;97158.84;;;19.49;71.24
15674;BME280;7937;48.090;16.212;2022-08-19T05:30:34;97152.34;;;19.58;71.23
15674;BME280;7937;48.090;16.212;2022-08-19T05:33:48;97164.56;;;19.67;71.28
15674;BME280;7937;48.090;16.212;2022-08-19T05:36:57;97184.53;;;19.86;70.54
15674;BME280;7937;48.090;16.212;2022-08-19T05:39:59;97195.13;;;20.01;70.15
15674;BME280;7937;48.090;16.212;2022-08-19T05:43:04;97205.56;;;20.17;69.50
15674;BME280;7937;48.090;16.212;2022-08-19T05:46:07;97204.25;;;20.34;68.94
15674;BME280;7937;48.090;16.212;2022-08-19T05:49:10;97214.53;;;20.58;68.46
15674;BME280;7937;48.090;16.212;2022-08-19T05:52:14;97218.22;;;20.85;68.07
15674;BME280;7937;48.090;16.212;2022-08-19T05:55:19;97224.25;;;21.07;67.80
15674;BME280;7937;48.090;16.212;2022-08-19T05:58:25;97220.66;;;21.28;68.27
15674;BME280;7937;48.090;16.212;2022-08-19T06:01:28;97218.03;;;21.41;67.57
15674;BME280;7937;48.090;16.212;2022-08-19T06:04:51;97239.94;;;21.58;67.51
15674;BME280;7937;48.090;16.212;2022-08-19T06:07:53;97249.28;;;21.68;67.37
15674;BME280;7937;48.090;16.212;2022-08-19T06:10:56;97238.97;;;21.79;67.28
15674;BME280;7937;48.090;16.212;2022-08-19T06:14:02;97232.16;;;21.89;66.65
15674;BME280;7937;48.090;16.212;2022-08-19T06:17:04;97223.06;;;21.97;66.75
15674;BME280;7937;48.090;16.212;2022-08-19T06:20:10;97220.44;;;22.03;66.04
15674;BME280;7937;48.090;16.212;2022-08-19T06:23:13;97221.88;;;22.13;66.11
15674;BME280;7937;48.090;16.212;2022-08-19T06:26:18;97232.59;;;22.19;65.93
15674;BME280;7937;48.090;16.212;2022-08-19T06:29:23;97245.22;;;22.19;65.87
15674;BME280;7937;48.090;16.212;2022-08-19T06:32:26;97253.72;;;22.22;66.11
15674;BME280;7937;48.090;16.212;2022-08-19T06:35:28;97264.66;;;22.27;66.17
15674;BME280;7937;48.090;16.212;2022-08-19T06:38:31;97262.38;;;22.31;65.97
15674;BME280;7937;48.090;16.212;2022-08-19T06:41:38;97253.50;;;22.43;65.61
15674;BME280;7937;48.090;16.212;2022-08-19T06:44:51;97249.75;;;22.58;65.13
15674;BME280;7937;48.090;16.212;2022-08-19T06:47:54;97246.22;;;22.77;64.62
15674;BME280;7937;48.090;16.212;2022-08-19T06:50:57;97242.25;;;22.86;64.17
15674;BME280;7937;48.090;16.212;2022-08-19T06:54:00;97247.03;;;22.91;63.82
15674;BME280;7937;48.090;16.212;2022-08-19T06:57:03;97241.53;;;23.17;63.52
15674;BME280;7937;48.090;16.212;2022-08-19T07:00:06;97222.38;;;23.38;62.32
15674;BME280;7937;48.090;16.212;2022-08-19T07:03:13;97215.50;;;23.49;61.73
15674;BME280;7937;48.090;16.212;2022-08-19T07:06:17;97197.22;;;23.58;61.35
15674;BME280;7937;48.090;16.212;2022-08-19T07:09:42;97197.91;;;23.53;61.19
15674;BME280;7937;48.090;16.212;2022-08-19T07:12:54;97205.78;;;23.54;61.08
15674;BME280;7937;48.090;16.212;2022-08-19T07:15:56;97217.53;;;23.60;60.90
15674;BME280;7937;48.090;16.212;2022-08-19T07:18:59;97214.31;;;23.76;60.47
15674;BME280;7937;48.090;16.212;2022-08-19T07:22:16;97223.06;;;24.03;59.75
15674;BME280;7937;48.090;16.212;2022-08-19T07:25:19;97215.44;;;24.18;58.64
15674;BME280;7937;48.090;16.212;2022-08-19T07:28:33;97205.03;;;24.28;58.48
15674;BME280;7937;48.090;16.212;2022-08-19T07:31:37;97193.91;;;24.43;58.02
15674;BME280;7937;48.090;16.212;2022-08-19T07:34:39;97183.50;;;24.65;56.85
15674;BME280;7937;48.090;16.212;2022-08-19T07:37:43;97156.66;;;24.70;57.10
15674;BME280;7937;48.090;16.212;2022-08-19T07:40:46;97132.00;;;24.85;57.31
15674;BME280;7937;48.090;16.212;2022-08-19T07:43:48;97147.16;;;25.34;56.25
15674;BME280;7937;48.090;16.212;2022-08-19T07:46:54;97150.50;;;26.01;54.78
15674;BME280;7937;48.090;16.212;2022-08-19T07:49:57;97135.72;;;26.15;53.59
15674;BME280;7937;48.090;16.212;2022-08-19T07:52:59;97154.38;;;25.93;54.09
15674;BME280;7937;48.090;16.212;2022-08-19T07:56:02;97148.47;;;25.96;53.87
15674;BME280;7937;48.090;16.212;2022-08-19T07:59:06;97168.53;;;26.42;52.82
15674;BME280;7937;48.090;16.212;2022-08-19T08:02:08;97172.38;;;26.81;51.35
15674;BME280;7937;48.090;16.212;2022-08-19T08:05:11;97164.81;;;27.06;50.20
15674;BME280;7937;48.090;16.212;2022-08-19T08:08:34;97185.78;;;27.39;49.53
15674;BME280;7937;48.090;16.212;2022-08-19T08:12:04;97186.09;;;27.83;48.29
15674;BME280;7937;48.090;16.212;2022-08-19T08:15:27;97185.66;;;27.74;48.22
15674;BME280;7937;48.090;16.212;2022-08-19T08:18:29;97198.00;;;27.82;47.57
15674;BME280;7937;48.090;16.212;2022-08-19T08:21:33;97187.81;;;28.06;47.54
15674;BME280;7937;48.090;16.212;2022-08-19T08:24:35;97182.13;;;28.07;46.81
15674;BME280;7937;48.090;16.212;2022-08-19T08:27:42;97183.63;;;27.98;46.91
15674;BME280;7937;48.090;16.212;2022-08-19T08:30:47;97182.31;;;27.84;46.77
15674;BME280;7937;48.090;16.212;2022-08-19T08:33:51;97188.84;;;27.54;47.28
15674;BME280;7937;48.090;16.212;2022-08-19T08:36:53;97200.81;;;27.59;47.15
15674;BME280;7937;48.090;16.212;2022-08-19T08:39:55;97219.28;;;27.73;46.74
15674;BME280;7937;48.090;16.212;2022-08-19T08:46:35;97229.47;;;28.61;45.23
15674;BME280;7937;48.090;16.212;2022-08-19T08:49:51;97225.81;;;28.89;44.30
15674;BME280;7937;48.090;16.212;2022-08-19T08:52:56;97220.38;;;28.73;44.06
15674;BME280;7937;48.090;16.212;2022-08-19T08:56:02;97224.34;;;28.48;43.25
15674;BME280;7937;48.090;16.212;2022-08-19T08:59:17;97224.84;;;28.79;42.95
15674;BME280;7937;48.090;16.212;2022-08-19T09:02:22;97210.97;;;29.19;42.01
15674;BME280;7937;48.090;16.212;2022-08-19T09:05:39;97189.31;;;29.24;41.66
15674;BME280;7937;48.090;16.212;2022-08-19T09:15:43;97177.81;;;29.65;41.65
15674;BME280;7937;48.090;16.212;2022-08-19T09:18:51;97168.44;;;30.10;40.82
15674;BME280;7937;48.090;16.212;2022-08-19T09:21:56;97172.25;;;30.46;39.60
15674;BME280;7937;48.090;16.212;2022-08-19T09:24:59;97158.44;;;31.05;38.78
15674;BME280;7937;48.090;16.212;2022-08-19T09:28:01;60274.75;;;-144.22;100.00
15674;BME280;7937;48.090;16.212;2022-08-19T09:31:26;60274.75;;;-144.22;100.00
15674;BME280;7937;48.090;16.212;2022-08-19T09:34:28;60274.75;;;-144.22;100.00
15674;BME280;7937;48.090;16.212;2022-08-19T09:37:38;86414.81;;;31.94;100.00
15674;BME280;7937;48.090;16.212;2022-08-19T09:40:41;60274.75;;;-144.22;100.00
15674;BME280;7937;48.090;16.212;2022-08-19T09:43:49;60274.75;;;-144.22;100.00
15674;BME280;7937;48.090;16.212;2022-08-19T09:46:53;60274.75;;;-144.22;100.00
15674;BME280;7937;48.090;16.212;2022-08-19T09:49:56;60274.75;;;-144.22;100.00
15674;BME280;7937;48.090;16.212;2022-08-19T09:52:59;60274.75;;;-144.22;100.00
15674;BME280;7937;48.090;16.212;2022-08-19T09:56:02;60274.75;;;-144.22;100.00
15674;BME280;7937;48.090;16.212;2022-08-19T09:59:04;60274.75;;;-144.22;100.00
15674;BME280;7937;48.090;16.212;2022-08-19T10:02:07;60274.75;;;-144.22;100.00
15674;BME280;7937;48.090;16.212;2022-08-19T10:05:11;60274.75;;;-144.22;100.00
15674;BME280;7937;48.090;16.212;2022-08-19T10:08:35;60274.75;;;-144.22;100.00
15674;BME280;7937;48.090;16.212;2022-08-19T10:11:43;60274.75;;;-144.22;100.00
15674;BME280;7937;48.090;16.212;2022-08-19T10:14:55;60274.75;;;-144.22;100.00
15674;BME280;7937;48.090;16.212;2022-08-19T10:17:57;60274.75;;;-144.22;100.00
15674;BME280;7937;48.090;16.212;2022-08-19T10:21:07;60274.75;;;-144.22;100.00
15674;BME280;7937;48.090;16.212;2022-08-19T10:24:12;60274.75;;;-144.22;100.00
15674;BME280;7937;48.090;16.212;2022-08-19T10:27:14;60274.75;;;-144.22;100.00
15674;BME280;7937;48.090;16.212;2022-08-19T10:30:17;60274.75;;;-144.22;100.00
15674;BME280;7937;48.090;16.212;2022-08-19T10:33:20;60274.75;;;-144.22;100.00
15674;BME280;7937;48.090;16.212;2022-08-19T10:36:42;60274.75;;;-144.22;100.00
15674;BME280;7937;48.090;16.212;2022-08-19T10:39:57;60274.75;;;-144.22;100.00
15674;BME280;7937;48.090;16.212;2022-08-19T10:42:59;60274.75;;;-144.22;100.00
15674;BME280;7937;48.090;16.212;2022-08-19T10:46:01;60274.75;;;-144.22;100.00
15674;BME280;7937;48.090;16.212;2022-08-19T10:49:05;60274.75;;;-144.22;100.00
15674;BME280;7937;48.090;16.212;2022-08-19T10:52:07;60274.75;;;-144.22;100.00
15674;BME280;7937;48.090;16.212;2022-08-19T10:55:33;60274.75;;;-144.22;100.00
15674;BME280;7937;48.090;16.212;2022-08-19T10:58:53;60274.75;;;-144.22;100.00
15674;BME280;7937;48.090;16.212;2022-08-19T11:02:00;60274.75;;;-144.22;100.00
15674;BME280;7937;48.090;16.212;2022-08-19T11:05:03;60274.75;;;-144.22;100.00
15674;BME280;7937;48.090;16.212;2022-08-19T11:08:13;60274.75;;;-144.22;100.00
15674;BME280;7937;48.090;16.212;2022-08-19T11:11:24;60274.75;;;-144.22;100.00
15674;BME280;7937;48.090;16.212;2022-08-19T11:14:26;60274.75;;;-144.22;100.00
15674;BME280;7937;48.090;16.212;2022-08-19T11:17:35;60274.75;;;-144.22;100.00
15674;BME280;7937;48.090;16.212;2022-08-19T11:20:37;60274.75;;;-144.22;100.00
15674;BME280;7937;48.090;16.212;2022-08-19T11:23:40;60274.75;;;-144.22;100.00
15674;BME280;7937;48.090;16.212;2022-08-19T11:26:44;60274.75;;;-144.22;100.00
15674;BME280;7937;48.090;16.212;2022-08-19T11:29:46;60274.75;;;-144.22;100.00
15674;BME280;7937;48.090;16.212;2022-08-19T11:32:49;60274.75;;;-144.22;100.00
15674;BME280;7937;48.090;16.212;2022-08-19T11:35:52;60274.75;;;-144.22;100.00
15674;BME280;7937;48.090;16.212;2022-08-19T11:38:55;60274.75;;;-144.22;100.00
15674;BME280;7937;48.090;16.212;2022-08-19T11:42:00;60274.75;;;-144.22;100.00
15674;BME280;7937;48.090;16.212;2022-08-19T11:45:27;60274.75;;;-144.22;100.00
15674;BME280;7937;48.090;16.212;2022-08-19T11:48:29;60274.75;;;-144.22;100.00
15674;BME280;7937;48.090;16.212;2022-08-19T11:51:32;60274.75;;;-144.22;100.00
15674;BME280;7937;48.090;16.212;2022-08-19T11:54:35;60274.75;;;-144.22;100.00
15674;BME280;7937;48.090;16.212;2022-08-19T11:57:37;60274.75;;;-144.22;100.00
15674;BME280;7937;48.090;16.212;2022-08-19T12:00:40;60274.75;;;-144.22;100.00
15674;BME280;7937;48.090;16.212;2022-08-19T12:03:44;60274.75;;;-144.22;100.00
15674;BME280;7937;48.090;16.212;2022-08-19T12:06:47;60274.75;;;-144.22;100.00
15674;BME280;7937;48.090;16.212;2022-08-19T12:09:50;60274.75;;;-144.22;100.00
15674;BME280;7937;48.090;16.212;2022-08-19T12:12:52;60274.75;;;-144.22;100.00
15674;BME280;7937;48.090;16.212;2022-08-19T12:16:00;60274.75;;;-144.22;100.00
15674;BME280;7937;48.090;16.212;2022-08-19T12:19:04;60274.75;;;-144.22;100.00
15674;BME280;7937;48.090;16.212;2022-08-19T12:22:06;60274.75;;;-144.22;100.00
15674;BME280;7937;48.090;16.212;2022-08-19T12:25:11;60274.75;;;-144.22;100.00
15674;BME280;7937;48.090;16.212;2022-08-19T12:28:13;60274.75;;;-144.22;100.00
15674;BME280;7937;48.090;16.212;2022-08-19T12:31:16;60274.75;;;-144.22;100.00
15674;BME280;7937;48.090;16.212;2022-08-19T12:34:18;60274.75;;;-144.22;100.00
15674;BME280;7937;48.090;16.212;2022-08-19T12:37:21;60274.75;;;-144.22;100.00
15674;BME280;7937;48.090;16.212;2022-08-19T12:40:24;60274.75;;;-144.22;100.00
15674;BME280;7937;48.090;16.212;2022-08-19T12:43:27;60274.75;;;-144.22;100.00
15674;BME280;7937;48.090;16.212;2022-08-19T12:46:32;60274.75;;;-144.22;100.00
15674;BME280;7937;48.090;16.212;2022-08-19T12:49:35;60274.75;;;-144.22;100.00
15674;BME280;7937;48.090;16.212;2022-08-19T12:52:56;60274.75;;;-144.22;100.00
15674;BME280;7937;48.090;16.212;2022-08-19T12:55:58;60274.75;;;-144.22;100.00
15674;BME280;7937;48.090;16.212;2022-08-19T12:59:02;60274.75;;;-144.22;100.00
15674;BME280;7937;48.090;16.212;2022-08-19T13:02:06;60274.75;;;-144.22;100.00
15674;BME280;7937;48.090;16.212;2022-08-19T13:05:11;60274.75;;;-144.22;100.00
15674;BME280;7937;48.090;16.212;2022-08-19T13:08:13;60274.75;;;-144.22;100.00
15674;BME280;7937;48.090;16.212;2022-08-19T13:11:19;60274.75;;;-144.22;100.00
15674;BME280;7937;48.090;16.212;2022-08-19T13:14:22;60274.75;;;-144.22;100.00
15674;BME280;7937;48.090;16.212;2022-08-19T13:17:24;60274.75;;;-144.22;100.00
15674;BME280;7937;48.090;16.212;2022-08-19T13:20:26;60274.75;;;-144.22;100.00
15674;BME280;7937;48.090;16.212;2022-08-19T13:23:29;60274.75;;;-144.22;100.00
15674;BME280;7937;48.090;16.212;2022-08-19T13:26:32;60274.75;;;-144.22;100.00
15674;BME280;7937;48.090;16.212;2022-08-19T13:29:34;60274.75;;;-144.22;100.00
15674;BME280;7937;48.090;16.212;2022-08-19T13:32:54;60274.75;;;-144.22;100.00
15674;BME280;7937;48.090;16.212;2022-08-19T13:36:18;60274.75;;;-144.22;100.00
15674;BME280;7937;48.090;16.212;2022-08-19T13:39:20;60274.75;;;-144.22;100.00
15674;BME280;7937;48.090;16.212;2022-08-19T13:42:25;60274.75;;;-144.22;100.00
15674;BME280;7937;48.090;16.212;2022-08-19T13:45:29;60274.75;;;-144.22;100.00
15674;BME280;7937;48.090;16.212;2022-08-19T13:48:31;60274.75;;;-144.22;100.00
15674;BME280;7937;48.090;16.212;2022-08-19T13:51:33;60274.75;;;-144.22;100.00
15674;BME280;7937;48.090;16.212;2022-08-19T13:54:36;60274.75;;;-144.22;100.00
15674;BME280;7937;48.090;16.212;2022-08-19T13:57:38;60274.75;;;-144.22;100.00
15674;BME280;7937;48.090;16.212;2022-08-19T14:00:44;60274.75;;;-144.22;100.00
15674;BME280;7937;48.090;16.212;2022-08-19T14:03:48;60274.75;;;-144.22;100.00
15674;BME280;7937;48.090;16.212;2022-08-19T14:06:50;60274.75;;;-144.22;100.00
15674;BME280;7937;48.090;16.212;2022-08-19T14:09:52;60274.75;;;-144.22;100.00
15674;BME280;7937;48.090;16.212;2022-08-19T14:12:56;60274.75;;;-144.22;100.00
15674;BME280;7937;48.090;16.212;2022-08-19T14:16:00;60274.75;;;-144.22;100.00
15674;BME280;7937;48.090;16.212;2022-08-19T14:19:02;60274.75;;;-144.22;100.00
15674;BME280;7937;48.090;16.212;2022-08-19T14:22:04;60274.75;;;-144.22;100.00
15674;BME280;7937;48.090;16.212;2022-08-19T14:25:09;60274.75;;;-144.22;100.00
15674;BME280;7937;48.090;16.212;2022-08-19T14:28:12;60274.75;;;-144.22;100.00
15674;BME280;7937;48.090;16.212;2022-08-19T14:31:15;60274.75;;;-144.22;100.00
15674;BME280;7937;48.090;16.212;2022-08-19T14:34:20;60274.75;;;-144.22;100.00
15674;BME280;7937;48.090;16.212;2022-08-19T14:37:24;60274.75;;;-144.22;100.00
15674;BME280;7937;48.090;16.212;2022-08-19T14:40:29;60274.75;;;-144.22;100.00
15674;BME280;7937;48.090;16.212;2022-08-19T14:43:32;60274.75;;;-144.22;100.00
15674;BME280;7937;48.090;16.212;2022-08-19T14:46:34;60274.75;;;-144.22;100.00
15674;BME280;7937;48.090;16.212;2022-08-19T14:49:37;60274.75;;;-144.22;100.00
15674;BME280;7937;48.090;16.212;2022-08-19T14:52:49;60274.75;;;-144.22;100.00
15674;BME280;7937;48.090;16.212;2022-08-19T14:55:52;60274.75;;;-144.22;100.00
15674;BME280;7937;48.090;16.212;2022-08-19T14:58:54;60274.75;;;-144.22;100.00
15674;BME280;7937;48.090;16.212;2022-08-19T15:01:58;60274.75;;;-144.22;100.00
15674;BME280;7937;48.090;16.212;2022-08-19T15:05:21;60274.75;;;-144.22;100.00
15674;BME280;7937;48.090;16.212;2022-08-19T15:08:23;60274.75;;;-144.22;100.00
15674;BME280;7937;48.090;16.212;2022-08-19T15:11:27;60274.75;;;-144.22;100.00
15674;BME280;7937;48.090;16.212;2022-08-19T15:14:30;60274.75;;;-144.22;100.00
15674;BME280;7937;48.090;16.212;2022-08-19T15:17:36;60274.75;;;-144.22;100.00
15674;BME280;7937;48.090;16.212;2022-08-19T15:20:48;60274.75;;;-144.22;100.00
15674;BME280;7937;48.090;16.212;2022-08-19T15:23:51;60274.75;;;-144.22;100.00
15674;BME280;7937;48.090;16.212;2022-08-19T15:26:53;60274.75;;;-144.22;100.00
15674;BME280;7937;48.090;16.212;2022-08-19T15:29:57;60274.75;;;-144.22;100.00
15674;BME280;7937;48.090;16.212;2022-08-19T15:33:02;60274.75;;;-144.22;100.00
15674;BME280;7937;48.090;16.212;2022-08-19T15:36:05;60274.75;;;-144.22;100.00
15674;BME280;7937;48.090;16.212;2022-08-19T15:39:08;60274.75;;;-144.22;100.00
15674;BME280;7937;48.090;16.212;2022-08-19T15:42:11;60274.75;;;-144.22;100.00
15674;BME280;7937;48.090;16.212;2022-08-19T15:45:20;60274.75;;;-144.22;100.00
15674;BME280;7937;48.090;16.212;2022-08-19T15:48:22;60274.75;;;-144.22;100.00
15674;BME280;7937;48.090;16.212;2022-08-19T15:51:26;60274.75;;;-144.22;100.00
15674;BME280;7937;48.090;16.212;2022-08-19T15:54:28;60274.75;;;-144.22;100.00
15674;BME280;7937;48.090;16.212;2022-08-19T15:57:30;60274.75;;;-144.22;100.00
15674;BME280;7937;48.090;16.212;2022-08-19T16:00:32;60274.75;;;-144.22;100.00
15674;BME280;7937;48.090;16.212;2022-08-19T16:03:55;60274.75;;;-144.22;100.00
15674;BME280;7937;48.090;16.212;2022-08-19T16:07:16;60274.75;;;-144.22;100.00
15674;BME280;7937;48.090;16.212;2022-08-19T16:10:25;60274.75;;;-144.22;100.00
15674;BME280;7937;48.090;16.212;2022-08-19T16:13:28;60274.75;;;-144.22;100.00
15674;BME280;7937;48.090;16.212;2022-08-19T16:16:34;60274.75;;;-144.22;100.00
15674;BME280;7937;48.090;16.212;2022-08-19T16:19:36;60274.75;;;-144.22;100.00
15674;BME280;7937;48.090;16.212;2022-08-19T16:22:39;60274.75;;;-144.22;100.00